Time;durP1;ratioP1;P1;durP2;ratioP2;P2;SDS_P1;SDS_P2;PMS_P1;PMS_P2;Temp;Humidity;BMP_temperature;BMP_pressure;BME280_temperature;BME280_humidity;BME280_pressure;Samples;Min_cycle;Max_cycle;Signal;HPM_P1;HPM_P2
2021/08/07 00:00:42;;;;;;;4.28;2.25;;;;;;;25.01;30.27;100067.02;1770862;81;21177;-65
2021/08/07 00:03:16;;;;;;;5.15;2.83;;;;;;;24.98;30.31;100063.50;1760630;81;21646;-64
2021/08/07 00:05:49;;;;;;;5.65;2.65;;;;;;;24.93;30.26;100066.06;1769538;81;21258;-66
2021/08/07 00:08:23;;;;;;;5.70;2.67;;;;;;;24.92;30.34;100063.08;1771723;81;21213;-65
2021/08/07 00:10:57;;;;;;;7.50;2.40;;;;;;;24.92;30.33;100068.44;1769150;81;21148;-65
2021/08/07 00:13:30;;;;;;;4.62;2.58;;;;;;;24.89;30.38;100063.53;1769443;81;21134;-66
2021/08/07 00:16:04;;;;;;;5.62;2.98;;;;;;;24.85;30.44;100068.56;1767545;80;21133;-65
2021/08/07 00:18:36;;;;;;;;;;;;;;;24.82;30.45;100053.47;1771441;81;21249;-66
2021/08/07 00:21:09;;;;;;;10.35;3.02;;;;;;;24.79;30.61;100061.98;1768205;81;20244;-64
2021/08/07 00:23:43;;;;;;;5.80;2.77;;;;;;;24.73;30.61;100063.70;1768715;81;21856;-65
2021/08/07 00:26:16;;;;;;;6.83;2.70;;;;;;;24.72;30.61;100066.89;1770640;81;21268;-65
2021/08/07 00:28:50;;;;;;;5.55;2.62;;;;;;;24.69;30.70;100059.86;1767225;81;21170;-65
2021/08/07 00:31:23;;;;;;;;;;;;;;;24.67;30.69;100064.09;1771686;81;21244;-65
2021/08/07 00:33:56;;;;;;;4.03;2.40;;;;;;;24.64;30.68;100061.90;1770160;81;20635;-66
2021/08/07 00:36:29;;;;;;;10.23;2.37;;;;;;;24.62;30.70;100065.30;1760201;81;21273;-64
2021/08/07 00:39:02;;;;;;;4.80;2.65;;;;;;;24.62;30.78;100062.62;1784492;80;21581;-64
2021/08/07 00:41:36;;;;;;;6.53;2.62;;;;;;;24.60;30.83;100064.73;1783867;80;21243;-65
2021/08/07 00:44:08;;;;;;;;;;;;;;;24.60;30.78;100066.58;1787543;80;21133;-66
2021/08/07 00:46:44;;;;;;;6.92;2.50;;;;;;;24.57;30.87;100056.36;1772142;80;20611;-66
2021/08/07 00:49:18;;;;;;;4.15;2.50;;;;;;;24.55;30.82;100065.15;1770592;81;21752;-65
2021/08/07 00:51:53;;;;;;;6.95;2.30;;;;;;;24.55;30.81;100063.81;1770449;81;21697;-65
2021/08/07 00:54:26;;;;;;;5.72;2.58;;;;;;;24.53;30.89;100062.69;1769927;81;21178;-65
2021/08/07 00:57:01;;;;;;;6.40;2.50;;;;;;;24.52;30.89;100059.73;1768991;81;22137;-64
2021/08/07 00:59:34;;;;;;;;;;;;;;;24.50;30.91;100061.83;1772540;80;21289;-65
2021/08/07 01:02:21;;;;;;;4.17;2.65;;;;;;;24.47;30.99;100050.24;1769916;81;20599;-65
2021/08/07 01:05:12;;;;;;;5.90;2.60;;;;;;;24.43;31.06;100051.72;1768971;80;21891;-66
2021/08/07 01:08:21;;;;;;;4.60;2.87;;;;;;;24.40;31.04;100050.87;1758153;81;21285;-67
2021/08/07 01:11:21;;;;;;;5.72;2.42;;;;;;;24.36;31.08;100058.25;1767398;80;21366;-66
2021/08/07 01:14:03;;;;;;;7.78;2.27;;;;;;;24.31;31.33;100064.81;1739071;80;21485;-66
2021/08/07 01:16:42;;;;;;;5.85;2.50;;;;;;;24.24;31.38;100055.53;1765345;81;21752;-65
2021/08/07 01:19:19;;;;;;;3.83;2.50;;;;;;;24.18;31.48;100060.47;1769741;80;21276;-66
2021/08/07 01:22:02;;;;;;;6.25;2.65;;;;;;;24.13;31.65;100060.34;1768387;80;21154;-66
2021/08/07 01:24:43;;;;;;;5.37;2.63;;;;;;;24.09;31.59;100060.52;1768578;81;21272;-66
2021/08/07 01:27:25;;;;;;;11.28;2.90;;;;;;;24.03;31.67;100066.21;1768469;81;21288;-66
2021/08/07 01:30:00;;;;;;;7.03;2.72;;;;;;;23.99;31.77;100061.55;1761074;81;21261;-66
2021/08/07 01:32:33;;;;;;;;;;;;;;;23.96;31.77;100066.00;1771153;81;21274;-66
2021/08/07 01:35:08;;;;;;;5.22;2.37;;;;;;;23.92;31.88;100070.19;1783453;80;20170;-65
2021/08/07 01:37:43;;;;;;;4.55;2.55;;;;;;;23.87;31.88;100068.70;1771498;80;21118;-65
2021/08/07 01:40:19;;;;;;;3.98;2.52;;;;;;;23.85;31.95;100069.45;1754806;81;21309;-64
2021/08/07 01:42:54;;;;;;;5.20;2.62;;;;;;;23.80;32.13;100071.99;1768097;80;21248;-65
2021/08/07 01:45:28;;;;;;;5.55;2.60;;;;;;;23.76;32.12;100069.48;1769163;81;21249;-65
2021/08/07 01:48:26;;;;;;;6.03;2.30;;;;;;;23.74;32.19;100071.58;1768310;80;21983;-66
2021/08/07 01:51:16;;;;;;;2.42;2.10;;;;;;;23.69;32.28;100068.22;1767147;80;21764;-66
2021/08/07 01:53:51;;;;;;;5.35;2.70;;;;;;;23.65;32.32;100067.55;1768363;80;21245;-66
2021/08/07 01:56:33;;;;;;;7.00;2.40;;;;;;;23.64;32.41;100073.95;1770864;81;21288;-66
2021/08/07 01:59:14;;;;;;;5.60;3.08;;;;;;;23.59;32.64;100071.14;1767687;81;21471;-67
2021/08/07 02:01:49;;;;;;;5.00;2.87;;;;;;;23.53;32.72;100066.16;1770239;81;21260;-66
2021/08/07 02:04:30;;;;;;;5.25;2.50;;;;;;;23.50;32.88;100061.80;1766907;81;21316;-67
2021/08/07 02:07:05;;;;;;;3.30;2.58;;;;;;;23.47;32.90;100068.92;1767366;80;21280;-66
2021/08/07 02:09:38;;;;;;;;;;;;;;;23.42;33.13;100073.61;1770202;81;21273;-66
2021/08/07 02:12:12;;;;;;;5.25;2.55;;;;;;;23.38;33.17;100081.78;1768104;81;20250;-66
2021/08/07 02:14:47;;;;;;;9.30;3.12;;;;;;;23.31;33.79;100088.48;1767207;81;21162;-67
2021/08/07 02:17:21;;;;;;;6.67;2.55;;;;;;;23.26;33.98;100082.98;1770528;81;21147;-66
2021/08/07 02:19:55;;;;;;;10.30;3.98;;;;;;;23.22;33.53;100088.99;1767674;81;21316;-67
2021/08/07 02:22:30;;;;;;;14.38;5.58;;;;;;;23.19;33.89;100092.92;1769205;80;21170;-66
2021/08/07 02:25:04;;;;;;;23.57;13.25;;;;;;;23.17;34.31;100095.52;1769137;81;21312;-65
2021/08/07 02:27:40;;;;;;;42.08;21.60;;;;;;;23.13;34.44;100090.33;1767872;80;21276;-66
2021/08/07 02:30:14;;;;;;;54.63;27.40;;;;;;;23.09;34.57;100101.16;1767542;80;21150;-65
2021/08/07 02:32:48;;;;;;;59.53;30.27;;;;;;;23.06;34.81;100098.41;1769129;81;21278;-65
2021/08/07 02:35:23;;;;;;;43.98;22.58;;;;;;;23.03;35.19;100102.85;1758528;81;21209;-66
2021/08/07 02:37:57;;;;;;;9.80;5.92;;;;;;;23.00;35.56;100097.16;1736743;81;21276;-65
2021/08/07 02:40:30;;;;;;;7.40;3.60;;;;;;;23.00;35.38;100095.81;1770275;81;21281;-65
2021/08/07 02:43:05;;;;;;;5.65;2.80;;;;;;;23.00;34.98;100099.82;1760171;81;21292;-68
2021/08/07 02:45:40;;;;;;;7.15;2.87;;;;;;;23.02;35.23;100093.73;1769937;81;21304;-65
2021/08/07 02:48:13;;;;;;;;;;;;;;;23.05;35.36;100097.28;1763084;81;21288;-66
2021/08/07 02:50:47;;;;;;;5.22;2.65;;;;;;;23.06;35.60;100100.27;1771776;80;20194;-65
2021/08/07 02:53:20;;;;;;;14.60;2.50;;;;;;;23.07;35.17;100101.91;1760334;81;21318;-65
2021/08/07 02:55:54;;;;;;;6.12;2.62;;;;;;;23.10;35.79;100100.93;1770096;81;21320;-65
2021/08/07 02:58:30;;;;;;;3.87;2.65;;;;;;;23.13;35.30;100105.84;1771254;81;21138;-65
2021/08/07 03:01:05;;;;;;;10.38;2.65;;;;;;;23.19;35.27;100104.94;1759461;81;21190;-65
2021/08/07 03:03:38;;;;;;;;;;;;;;;23.25;35.56;100102.73;1771298;81;21296;-65
2021/08/07 03:06:11;;;;;;;5.95;2.42;;;;;;;23.33;35.80;100103.76;1768163;81;20162;-65
2021/08/07 03:08:45;;;;;;;6.70;2.85;;;;;;;23.40;35.85;100105.08;1770073;81;21238;-66
2021/08/07 03:11:19;;;;;;;8.35;3.58;;;;;;;23.49;35.40;100100.23;1769587;80;21502;-65
2021/08/07 03:13:54;;;;;;;11.75;3.47;;;;;;;23.57;35.35;100098.09;1770495;81;21273;-64
2021/08/07 03:16:29;;;;;;;12.07;3.62;;;;;;;23.66;35.35;100111.45;1768832;81;21179;-65
2021/08/07 03:19:03;;;;;;;13.00;5.53;;;;;;;23.76;35.46;100103.72;1768246;81;21336;-65
2021/08/07 03:21:37;;;;;;;17.27;6.47;;;;;;;23.83;35.36;100099.62;1767092;81;21356;-65
2021/08/07 03:24:11;;;;;;;11.28;4.55;;;;;;;23.91;35.42;100102.78;1768696;81;21669;-65
2021/08/07 03:26:46;;;;;;;11.00;5.03;;;;;;;24.02;35.36;100107.38;1767933;80;21126;-65
2021/08/07 03:29:21;;;;;;;7.62;3.17;;;;;;;24.14;34.91;100103.44;1769484;81;21242;-65
2021/08/07 03:31:56;;;;;;;8.40;3.40;;;;;;;24.30;34.59;100108.65;1757944;81;21272;-65
2021/08/07 03:34:31;;;;;;;10.60;4.10;;;;;;;24.45;34.49;100102.36;1769096;80;21197;-64
2021/08/07 03:37:04;;;;;;;;;;;;;;;24.63;34.34;100104.94;1770591;81;21332;-66
2021/08/07 03:39:39;;;;;;;21.02;9.23;;;;;;;24.82;33.97;100103.83;1771208;81;20178;-65
2021/08/07 03:42:12;;;;;;;19.23;9.05;;;;;;;25.02;33.75;100108.84;1769486;81;21291;-64
2021/08/07 03:44:45;;;;;;;10.63;6.85;;;;;;;25.17;33.55;100103.29;1768796;81;21135;-65
2021/08/07 03:47:18;;;;;;;11.38;4.00;;;;;;;25.38;33.32;100106.73;1770657;81;21111;-65
2021/08/07 03:49:51;;;;;;;12.93;3.25;;;;;;;25.68;33.09;100119.14;1768631;81;21241;-66
2021/08/07 03:52:25;;;;;;;6.75;3.12;;;;;;;26.65;31.95;100118.82;1767593;81;21162;-66
2021/08/07 03:54:58;;;;;;;14.33;3.55;;;;;;;26.65;31.95;100118.82;1767860;81;21280;-66
2021/08/07 03:57:33;;;;;;;6.17;2.72;;;;;;;27.03;31.17;100119.47;1768342;81;21241;-65
2021/08/07 04:00:07;;;;;;;4.83;2.52;;;;;;;27.23;29.99;100118.40;1768389;81;21265;-66
2021/08/07 04:02:43;;;;;;;5.72;2.30;;;;;;;27.39;28.82;100116.22;1769266;80;21178;-67
2021/08/07 04:05:16;;;;;;;;;;;;;;;27.83;27.78;100122.42;1770113;81;21260;-67
2021/08/07 04:07:49;;;;;;;6.80;2.90;;;;;;;28.30;27.97;100124.58;1768898;81;20254;-66
2021/08/07 04:10:24;;;;;;;22.10;4.17;;;;;;;28.79;26.85;100123.41;1768110;80;21684;-67
2021/08/07 04:12:58;;;;;;;8.25;2.70;;;;;;;29.23;26.43;100112.66;1767390;80;21212;-66
2021/08/07 04:15:30;;;;;;;;;;;;;;;29.64;25.52;100104.23;1770395;81;21280;-66
2021/08/07 04:18:03;;;;;;;5.40;2.08;;;;;;;30.02;25.17;100110.33;1768259;81;20329;-67
2021/08/07 04:20:38;;;;;;;3.35;2.10;;;;;;;30.17;24.81;100111.69;1769261;81;21261;-66
2021/08/07 04:23:12;;;;;;;6.87;2.37;;;;;;;30.12;24.66;100121.16;1771034;81;21281;-66
2021/08/07 04:25:46;;;;;;;5.22;2.27;;;;;;;30.36;24.11;100116.34;1770494;81;21812;-65
2021/08/07 04:28:20;;;;;;;5.33;2.52;;;;;;;30.64;23.69;100108.27;1770485;81;21288;-65
2021/08/07 04:30:55;;;;;;;5.95;2.00;;;;;;;30.89;23.31;100104.20;1766940;80;21130;-65
2021/08/07 04:33:29;;;;;;;5.67;2.20;;;;;;;31.18;23.09;100103.06;1757848;81;21246;-64
2021/08/07 04:36:06;;;;;;;2.58;2.10;;;;;;;31.50;22.44;100117.61;1767137;81;21324;-65
2021/08/07 04:38:40;;;;;;;5.55;2.00;;;;;;;31.70;22.30;100111.55;1768406;81;21146;-66
2021/08/07 04:41:14;;;;;;;11.45;2.50;;;;;;;31.91;22.16;100102.78;1768565;81;21247;-65
2021/08/07 04:43:46;;;;;;;;;;;;;;;32.17;21.82;100105.63;1772070;81;21265;-65
2021/08/07 04:46:20;;;;;;;10.90;2.00;;;;;;;32.48;21.63;100107.02;1767581;81;20616;-66
2021/08/07 04:48:54;;;;;;;5.53;1.90;;;;;;;32.67;21.12;100099.59;1768506;81;21265;-63
2021/08/07 04:51:27;;;;;;;8.83;2.17;;;;;;;32.78;20.82;100107.88;1771433;81;21336;-66
2021/08/07 04:54:00;;;;;;;5.28;2.20;;;;;;;32.87;20.65;100101.55;1768267;81;21249;-65
2021/08/07 04:56:34;;;;;;;3.22;2.20;;;;;;;33.01;20.44;100101.68;1767547;81;21851;-63
2021/08/07 04:59:06;;;;;;;;;;;;;;;33.16;20.39;100086.64;1771673;81;21178;-64
2021/08/07 05:01:39;;;;;;;9.65;1.90;;;;;;;33.40;20.32;100088.80;1770777;81;20225;-64
2021/08/07 05:04:13;;;;;;;5.83;2.00;;;;;;;33.65;19.83;100093.92;1770239;81;21134;-64
2021/08/07 05:06:47;;;;;;;10.20;1.98;;;;;;;33.66;19.86;100095.55;1766981;81;21167;-67
2021/08/07 05:09:21;;;;;;;8.68;1.98;;;;;;;33.67;19.71;100086.87;1769405;81;21261;-66
2021/08/07 05:11:59;;;;;;;6.00;1.90;;;;;;;33.78;19.44;100083.72;1769559;80;21253;-63
2021/08/07 05:14:34;;;;;;;15.80;2.90;;;;;;;33.79;19.38;100073.12;1776718;80;21309;-64
2021/08/07 05:17:08;;;;;;;8.48;1.85;;;;;;;33.80;19.55;100083.41;1768069;81;21170;-66
2021/08/07 05:19:42;;;;;;;3.72;1.65;;;;;;;33.79;19.45;100079.91;1768720;81;21119;-66
2021/08/07 05:22:16;;;;;;;6.03;1.80;;;;;;;33.88;19.60;100075.98;1768643;81;21277;-70
2021/08/07 05:24:51;;;;;;;3.77;1.90;;;;;;;34.16;19.59;100073.67;1768609;81;21135;-66
2021/08/07 05:27:25;;;;;;;5.85;1.90;;;;;;;34.45;19.43;100085.71;1768669;81;21126;-68
2021/08/07 05:29:59;;;;;;;8.60;1.70;;;;;;;34.62;18.92;100086.55;1768303;81;21753;-66
2021/08/07 05:32:34;;;;;;;5.40;1.90;;;;;;;34.80;18.77;100092.50;1768378;81;21308;-68
2021/08/07 05:35:08;;;;;;;8.45;1.85;;;;;;;34.98;18.58;100083.44;1768880;81;21239;-64
2021/08/07 05:37:44;;;;;;;5.58;1.80;;;;;;;35.15;18.40;100084.50;1770670;81;21264;-63
2021/08/07 05:40:19;;;;;;;6.17;1.62;;;;;;;35.37;17.98;100082.44;1770401;81;21287;-65
2021/08/07 05:42:53;;;;;;;4.12;1.60;;;;;;;35.34;17.69;100074.05;1767888;81;21174;-70
2021/08/07 05:45:27;;;;;;;5.97;1.85;;;;;;;35.41;17.81;100083.43;1769442;81;21773;-69
2021/08/07 05:48:00;;;;;;;8.85;1.70;;;;;;;35.43;17.49;100087.20;1768944;81;21313;-64
2021/08/07 05:50:35;;;;;;;5.08;1.62;;;;;;;35.45;17.72;100079.53;1768411;81;21344;-66
2021/08/07 05:53:08;;;;;;;2.30;1.37;;;;;;;35.68;17.38;100083.41;1769840;80;21170;-65
2021/08/07 05:55:42;;;;;;;3.00;1.42;;;;;;;35.98;17.44;100078.39;1770542;81;21142;-68
2021/08/07 05:58:15;;;;;;;4.78;1.60;;;;;;;36.17;16.80;100088.05;1770115;80;21280;-73
2021/08/07 06:00:50;;;;;;;4.90;1.52;;;;;;;36.25;16.77;100092.77;1770608;81;21146;-64
2021/08/07 06:03:23;;;;;;;5.12;1.42;;;;;;;36.33;16.59;100078.38;1772874;80;21280;-66
2021/08/07 06:05:58;;;;;;;8.05;1.50;;;;;;;36.43;16.67;100092.31;1770796;80;21768;-62
2021/08/07 06:08:31;;;;;;;4.85;1.52;;;;;;;36.60;16.48;100080.19;1770468;81;21284;-64
2021/08/07 06:11:05;;;;;;;6.55;2.10;;;;;;;36.86;16.29;100090.68;1768873;80;21189;-65
2021/08/07 06:13:40;;;;;;;2.60;1.60;;;;;;;37.03;16.17;100100.34;1767384;80;21181;-64
2021/08/07 06:16:15;;;;;;;7.85;1.60;;;;;;;37.12;15.60;100107.20;1768747;80;21249;-63
2021/08/07 06:18:48;;;;;;;3.25;1.35;;;;;;;37.14;15.53;100092.11;1767727;81;21284;-64
2021/08/07 06:21:22;;;;;;;14.55;1.75;;;;;;;37.28;16.02;100089.84;1768942;81;21266;-64
2021/08/07 06:23:58;;;;;;;13.48;2.00;;;;;;;37.62;15.51;100087.21;1769922;81;21464;-64
2021/08/07 06:26:34;;;;;;;2.00;1.17;;;;;;;37.84;15.03;100100.78;1772918;81;21272;-64
2021/08/07 06:29:08;;;;;;;3.70;1.40;;;;;;;37.81;15.27;100086.94;1768886;81;21149;-64
2021/08/07 06:31:42;;;;;;;4.83;1.60;;;;;;;38.25;15.05;100113.42;1770742;81;21256;-66
2021/08/07 06:34:15;;;;;;;2.95;1.32;;;;;;;38.54;14.60;100105.13;1768955;81;21281;-63
2021/08/07 06:36:48;;;;;;;7.25;1.47;;;;;;;38.68;14.29;100108.47;1770511;81;21872;-67
2021/08/07 06:39:22;;;;;;;4.03;1.52;;;;;;;38.87;14.48;100117.95;1770463;81;21281;-66
2021/08/07 06:41:55;;;;;;;5.62;1.37;;;;;;;39.18;14.19;100112.78;1769381;80;21202;-65
2021/08/07 06:44:32;;;;;;;5.25;1.42;;;;;;;39.25;13.96;100100.75;1755083;81;21768;-64
2021/08/07 06:47:05;;;;;;;1.77;1.47;;;;;;;39.27;14.19;100095.18;1769856;80;21335;-64
2021/08/07 06:49:38;;;;;;;5.80;1.57;;;;;;;39.50;13.95;100095.71;1771254;81;21681;-63
2021/08/07 06:52:12;;;;;;;2.75;1.62;;;;;;;39.70;13.77;100097.13;1770361;81;21249;-64
2021/08/07 06:54:45;;;;;;;6.25;1.77;;;;;;;39.98;13.51;100112.50;1768630;81;21281;-64
2021/08/07 06:57:22;;;;;;;4.85;1.40;;;;;;;40.11;13.47;100084.02;1768156;81;21269;-66
2021/08/07 06:59:56;;;;;;;2.80;1.40;;;;;;;40.09;13.72;100084.12;1768490;81;21178;-64
2021/08/07 07:02:29;;;;;;;3.77;1.80;;;;;;;40.26;13.15;100090.26;1768424;81;21252;-65
2021/08/07 07:05:05;;;;;;;5.42;1.60;;;;;;;40.25;13.22;100102.36;1768651;81;21367;-70
2021/08/07 07:07:39;;;;;;;2.70;1.67;;;;;;;40.21;13.13;100095.95;1768949;81;21146;-65
2021/08/07 07:10:14;;;;;;;2.87;1.62;;;;;;;40.40;13.19;100096.81;1768914;81;21312;-64
2021/08/07 07:12:48;;;;;;;3.85;1.87;;;;;;;40.72;12.91;100104.83;1770190;81;21253;-67
2021/08/07 07:15:22;;;;;;;6.42;1.82;;;;;;;40.93;12.53;100098.72;1769102;81;21324;-63
2021/08/07 07:17:56;;;;;;;7.95;1.80;;;;;;;41.03;12.70;100089.23;1768400;81;21335;-67
2021/08/07 07:20:30;;;;;;;4.75;1.92;;;;;;;41.11;12.60;100092.42;1767801;81;21319;-67
2021/08/07 07:23:03;;;;;;;3.80;1.60;;;;;;;41.37;12.64;100088.22;1768173;81;21300;-64
2021/08/07 07:25:36;;;;;;;3.80;1.98;;;;;;;41.76;12.39;100082.58;1767576;81;21175;-66
2021/08/07 07:28:10;;;;;;;4.62;1.95;;;;;;;42.03;11.74;100103.00;1769286;81;21248;-65
2021/08/07 07:30:43;;;;;;;7.25;2.12;;;;;;;42.18;11.83;100082.45;1767900;81;21173;-67
2021/08/07 07:33:21;;;;;;;7.08;2.25;;;;;;;42.39;11.47;100090.51;1769995;81;21261;-70
2021/08/07 07:35:55;;;;;;;9.50;2.35;;;;;;;42.47;11.54;100086.00;1768280;81;21233;-65
2021/08/07 07:38:30;;;;;;;6.25;2.10;;;;;;;42.64;11.21;100078.22;1770193;81;21320;-65
2021/08/07 07:41:04;;;;;;;7.67;2.40;;;;;;;42.48;11.50;100090.34;1768268;81;21292;-67
2021/08/07 07:43:39;;;;;;;3.50;2.02;;;;;;;42.49;11.59;100095.47;1767205;81;21142;-65
2021/08/07 07:46:13;;;;;;;4.40;2.33;;;;;;;42.55;11.29;100078.17;1767778;81;21405;-66
2021/08/07 07:48:47;;;;;;;5.50;2.55;;;;;;;42.70;11.18;100096.66;1767858;81;21261;-66
2021/08/07 07:51:20;;;;;;;3.17;2.10;;;;;;;42.30;11.43;100104.97;1767165;81;21281;-67
2021/08/07 07:53:54;;;;;;;8.35;2.20;;;;;;;42.00;11.58;100129.83;1769325;81;21241;-67
2021/08/07 07:56:28;;;;;;;10.43;2.37;;;;;;;41.90;11.83;100087.11;1769017;80;21166;-65
2021/08/07 07:59:02;;;;;;;11.88;2.35;;;;;;;41.94;12.03;100110.00;1769100;81;21320;-66
2021/08/07 08:01:36;;;;;;;6.65;2.40;;;;;;;42.06;12.15;100085.22;1769890;81;21174;-73
2021/08/07 08:04:09;;;;;;;12.73;2.67;;;;;;;41.69;12.21;100089.80;1768436;81;21836;-68
2021/08/07 08:06:44;;;;;;;5.45;2.17;;;;;;;41.28;12.70;100091.66;1769060;81;21273;-66
2021/08/07 08:09:18;;;;;;;9.28;2.60;;;;;;;41.36;12.46;100094.06;1767840;81;22075;-68
2021/08/07 08:11:52;;;;;;;10.65;2.80;;;;;;;41.27;12.48;100102.97;1767479;81;21174;-66
2021/08/07 08:14:25;;;;;;;9.33;2.45;;;;;;;40.68;12.90;100092.34;1768929;81;21272;-66
2021/08/07 08:17:02;;;;;;;10.40;2.83;;;;;;;39.96;13.35;100095.55;1768127;81;21279;-68
2021/08/07 08:19:40;;;;;;;8.75;2.25;;;;;;;39.52;14.00;100099.73;1768594;81;21778;-66
2021/08/07 08:22:13;;;;;;;2.87;2.10;;;;;;;39.01;14.44;100121.28;1767143;81;21201;-66
2021/08/07 08:24:47;;;;;;;6.65;2.30;;;;;;;38.36;14.73;100108.44;1770148;81;21143;-66
2021/08/07 08:27:21;;;;;;;9.43;2.90;;;;;;;37.61;15.25;100106.11;1768472;81;21170;-67
2021/08/07 08:29:58;;;;;;;5.08;2.10;;;;;;;37.21;15.87;100108.06;1768718;81;21249;-67
2021/08/07 08:32:31;;;;;;;4.00;2.15;;;;;;;36.96;16.39;100106.82;1767515;81;21257;-66
2021/08/07 08:35:05;;;;;;;5.83;2.10;;;;;;;37.29;16.39;100105.09;1768982;81;21304;-65
2021/08/07 08:37:39;;;;;;;7.58;2.25;;;;;;;37.22;16.21;100100.65;1769825;81;21253;-68
2021/08/07 08:40:13;;;;;;;4.12;2.10;;;;;;;37.04;16.45;100116.95;1768562;81;21268;-68
2021/08/07 08:42:46;;;;;;;4.50;1.90;;;;;;;36.85;16.87;100106.02;1766952;81;21268;-66
2021/08/07 08:45:19;;;;;;;3.40;2.10;;;;;;;36.83;16.77;100109.62;1769956;81;21299;-67
2021/08/07 08:47:53;;;;;;;7.45;2.42;;;;;;;36.74;16.68;100107.38;1763671;81;21269;-67
2021/08/07 08:50:28;;;;;;;7.67;2.80;;;;;;;36.62;17.11;100104.41;1758433;81;21253;-69
2021/08/07 08:53:01;;;;;;;15.13;2.75;;;;;;;36.88;17.05;100106.73;1767022;81;21312;-68
2021/08/07 08:55:35;;;;;;;3.90;2.50;;;;;;;37.50;16.29;100100.68;1769326;81;21167;-68
2021/08/07 08:58:08;;;;;;;9.70;2.50;;;;;;;37.78;16.13;100108.28;1768014;81;21265;-67
2021/08/07 09:00:42;;;;;;;6.78;3.17;;;;;;;37.71;16.25;100107.95;1767623;81;21854;-67
2021/08/07 09:03:16;;;;;;;11.70;2.85;;;;;;;37.52;16.27;100111.53;1767293;81;21209;-67
2021/08/07 09:05:51;;;;;;;6.70;2.47;;;;;;;37.57;16.40;100127.00;1767639;80;21716;-66
2021/08/07 09:08:24;;;;;;;4.75;2.42;;;;;;;37.61;16.12;100098.72;1767045;81;21248;-68
2021/08/07 09:11:21;;;;;;;9.00;2.85;;;;;;;37.68;16.07;100107.81;1767905;81;21134;-68
2021/08/07 09:14:21;;;;;;;4.87;2.92;;;;;;;37.74;15.88;100085.47;1776539;80;21153;-65
2021/08/07 09:17:05;;;;;;;9.68;3.00;;;;;;;38.00;16.30;100154.42;1761756;80;21836;-67
2021/08/07 09:19:50;;;;;;;6.80;2.58;;;;;;;38.29;15.37;100102.09;1768452;81;21812;-66
2021/08/07 09:22:32;;;;;;;6.92;2.80;;;;;;;38.45;15.72;100092.84;1770029;81;21281;-66
2021/08/07 09:25:13;;;;;;;9.33;3.00;;;;;;;38.75;15.55;100103.33;1769248;81;21300;-66
2021/08/07 09:27:50;;;;;;;9.28;2.90;;;;;;;38.71;15.36;100105.90;1767787;80;21197;-65
2021/08/07 09:30:27;;;;;;;17.05;3.27;;;;;;;38.69;15.76;100090.94;1768111;81;21780;-66
2021/08/07 09:33:09;;;;;;;10.93;2.90;;;;;;;38.73;15.58;100104.23;1768849;81;21205;-66
2021/08/07 09:35:45;;;;;;;12.55;3.08;;;;;;;38.77;15.30;100103.80;1767369;81;21256;-67
2021/08/07 09:38:23;;;;;;;12.35;2.75;;;;;;;38.80;15.91;100097.69;1767232;81;21300;-67
2021/08/07 09:41:03;;;;;;;3.12;2.40;;;;;;;38.84;14.86;100117.78;1762806;80;21681;-67
2021/08/07 09:43:48;;;;;;;12.98;2.65;;;;;;;38.54;15.54;100091.45;1764667;80;21351;-66
2021/08/07 09:46:25;;;;;;;3.92;2.47;;;;;;;38.30;15.66;100083.77;1778976;80;21283;-67
2021/08/07 09:49:00;;;;;;;3.42;2.70;;;;;;;38.07;15.64;100089.15;1767736;80;21320;-66
2021/08/07 09:51:36;;;;;;;6.17;2.37;;;;;;;37.79;15.53;100096.80;1763460;81;21213;-66
2021/08/07 09:54:16;;;;;;;7.15;2.75;;;;;;;37.65;15.57;100101.05;1765522;81;21276;-66
2021/08/07 09:56:53;;;;;;;9.40;2.62;;;;;;;37.44;15.32;100093.77;1768314;80;21205;-67
2021/08/07 09:59:30;;;;;;;14.15;2.85;;;;;;;37.22;15.76;100112.94;1769719;80;21237;-66
2021/08/07 10:02:06;;;;;;;7.45;2.52;;;;;;;37.08;15.90;100094.75;1770876;81;21249;-65
2021/08/07 10:04:40;;;;;;;3.80;2.52;;;;;;;36.99;15.87;100099.38;1737427;80;21257;-67
2021/08/07 10:07:15;;;;;;;8.25;2.90;;;;;;;36.88;15.89;100075.34;1770326;80;21257;-66
2021/08/07 10:09:50;;;;;;;6.45;2.52;;;;;;;36.81;16.19;100085.36;1768766;80;21146;-66
2021/08/07 10:12:24;;;;;;;8.43;2.50;;;;;;;36.84;15.98;100064.83;1767212;81;21253;-69
2021/08/07 10:14:58;;;;;;;9.58;2.65;;;;;;;36.78;15.63;100074.28;1768321;80;21198;-66
2021/08/07 10:17:32;;;;;;;11.10;3.00;;;;;;;36.60;15.73;100090.29;1768444;80;21253;-66
2021/08/07 10:20:07;;;;;;;9.70;2.47;;;;;;;36.41;15.81;100093.19;1770895;81;21146;-64
2021/08/07 10:22:41;;;;;;;7.58;2.55;;;;;;;36.26;16.12;100069.83;1768226;81;21189;-65
2021/08/07 10:25:14;;;;;;;5.65;2.47;;;;;;;36.17;16.44;100066.80;1772583;80;21269;-66
2021/08/07 10:27:47;;;;;;;7.22;2.42;;;;;;;36.13;16.53;100082.16;1768787;81;21300;-64
2021/08/07 10:30:22;;;;;;;4.45;2.52;;;;;;;36.08;16.54;100072.19;1770908;81;21126;-65
2021/08/07 10:32:57;;;;;;;17.50;3.45;;;;;;;36.06;16.54;100059.98;1768898;81;21144;-65
2021/08/07 10:35:30;;;;;;;8.33;2.40;;;;;;;36.04;16.63;100086.16;1770880;81;21249;-66
2021/08/07 10:38:04;;;;;;;8.83;2.55;;;;;;;35.97;16.27;100081.67;1757208;81;21276;-64
2021/08/07 10:40:39;;;;;;;6.05;2.40;;;;;;;35.83;16.05;100055.02;1770337;81;21170;-64
2021/08/07 10:43:13;;;;;;;7.35;2.65;;;;;;;35.73;16.66;100054.70;1768804;81;21281;-66
2021/08/07 10:45:46;;;;;;;7.47;2.42;;;;;;;35.66;16.62;100060.31;1768974;81;21282;-66
2021/08/07 10:48:44;;;;;;;5.78;2.70;;;;;;;35.56;16.78;100047.72;1770833;80;21158;-64
2021/08/07 10:51:30;;;;;;;6.40;2.30;;;;;;;35.55;17.04;100053.48;1764014;80;21257;-65
2021/08/07 10:54:33;;;;;;;3.40;2.02;;;;;;;35.55;16.60;100073.36;1768807;81;21256;-65
2021/08/07 10:57:06;;;;;;;9.88;2.70;;;;;;;35.50;16.43;100054.92;1769096;81;21249;-66
2021/08/07 10:59:40;;;;;;;9.88;2.52;;;;;;;35.48;16.47;100050.34;1768926;80;21129;-64
2021/08/07 11:02:20;;;;;;;8.18;2.10;;;;;;;35.44;16.48;100056.16;1769579;81;21277;-66
2021/08/07 11:04:53;;;;;;;15.83;2.80;;;;;;;35.36;16.38;100039.16;1768479;81;21288;-67
2021/08/07 11:07:28;;;;;;;4.72;2.27;;;;;;;35.33;16.94;100027.52;1770249;80;21250;-65
2021/08/07 11:10:17;;;;;;;12.15;2.52;;;;;;;35.33;16.65;100032.41;1768595;81;21293;-65
2021/08/07 11:12:51;;;;;;;7.45;2.30;;;;;;;35.33;16.45;100057.45;1770250;80;21150;-67
2021/08/07 11:15:32;;;;;;;5.83;2.55;;;;;;;35.25;16.27;100039.14;1734669;80;21700;-64
2021/08/07 11:18:24;;;;;;;10.82;2.70;;;;;;;35.15;16.45;100040.97;1769535;80;21779;-66
2021/08/07 11:20:58;;;;;;;8.23;2.37;;;;;;;35.11;16.58;100052.18;1769320;81;21282;-64
2021/08/07 11:23:37;;;;;;;;;;;;;;;35.08;16.08;100040.56;1771890;81;21264;-66
2021/08/07 11:26:10;;;;;;;9.90;2.40;;;;;;;35.07;16.31;100039.48;1767133;81;20185;-65
2021/08/07 11:29:08;;;;;;;5.83;2.45;;;;;;;35.06;16.24;100025.65;1768863;81;21118;-66
2021/08/07 11:31:42;;;;;;;13.35;2.60;;;;;;;35.11;16.54;100050.82;1724977;83;21348;-65
2021/08/07 11:34:23;;;;;;;7.55;1.90;;;;;;;35.17;16.52;100032.48;1761078;80;21268;-67
2021/08/07 11:37:14;;;;;;;6.62;1.80;;;;;;;35.16;16.16;100019.98;1771528;81;21162;-66
2021/08/07 11:40:12;;;;;;;6.05;2.02;;;;;;;35.18;16.48;100015.06;1743416;80;21269;-65
2021/08/07 11:42:50;;;;;;;15.35;2.40;;;;;;;35.23;16.41;100030.48;1768657;81;21170;-68
2021/08/07 11:45:24;;;;;;;7.35;2.10;;;;;;;35.25;15.66;100020.90;1769297;80;21174;-65
2021/08/07 11:47:58;;;;;;;5.72;2.00;;;;;;;35.18;16.22;100045.78;1768902;81;21273;-65
2021/08/07 11:50:31;;;;;;;;;;;;;;;35.16;16.07;100030.31;1772415;80;21268;-67
2021/08/07 11:53:08;;;;;;;5.53;2.10;;;;;;;35.17;16.28;100017.52;1769374;81;20260;-67
2021/08/07 11:55:41;;;;;;;9.25;2.27;;;;;;;35.19;16.18;100031.62;1769599;81;21712;-65
2021/08/07 11:58:15;;;;;;;7.12;2.30;;;;;;;35.15;16.51;100019.74;1765576;80;21284;-66
2021/08/07 12:00:49;;;;;;;6.12;2.08;;;;;;;35.17;16.50;100022.96;1769741;81;21351;-62
2021/08/07 12:03:23;;;;;;;4.30;1.70;;;;;;;35.19;16.25;100018.02;1767429;81;21205;-66
2021/08/07 12:06:00;;;;;;;13.45;2.67;;;;;;;35.15;16.95;99996.06;1765781;81;21248;-66